WV6877 SBMT-SBML
Flight info
| Callsign | WV6877 |
|---|---|
| Flight time | N/A |
| Altitude | 12500 |
| Route | DCT |
| Aircraft | C310/L-SDFGRWY/S |
Departure
| Time | 2026-04-28 21:12 |
|---|---|
| Airport | Campo de Marte Airport (SBMT) |
Arrival
| Time | N/A |
|---|---|
| Airport | Frank Miloye Milenkowichi–Marília State Airport (SBML) |
| Time | Latitude | Longitude | Altitude | Speed | Heading |
|---|---|---|---|---|---|
| 2026-04-28 20:57 | -23.51174 | -46.63330 | 2375 ft | 0 kts | 7° |
| 2026-04-28 21:04 | -23.51173 | -46.63330 | 2375 ft | 1 kts | 7° |
| 2026-04-28 21:04 | -23.51161 | -46.63346 | 2375 ft | 6 kts | 271° |
| 2026-04-28 21:04 | -23.51162 | -46.63405 | 2375 ft | 10 kts | 273° |
| 2026-04-28 21:05 | -23.51135 | -46.63438 | 2375 ft | 9 kts | 348° |
| 2026-04-28 21:05 | -23.51074 | -46.63451 | 2375 ft | 4 kts | 349° |
| 2026-04-28 21:05 | -23.51052 | -46.63455 | 2375 ft | 1 kts | 349° |
| 2026-04-28 21:05 | -23.51033 | -46.63459 | 2375 ft | 6 kts | 350° |
| 2026-04-28 21:06 | -23.51016 | -46.63455 | 2374 ft | 0 kts | 20° |
| 2026-04-28 21:06 | -23.51013 | -46.63441 | 2374 ft | 4 kts | 128° |
| 2026-04-28 21:06 | -23.51031 | -46.63413 | 2375 ft | 6 kts | 101° |
| 2026-04-28 21:06 | -23.51041 | -46.63350 | 2375 ft | 10 kts | 102° |
| 2026-04-28 21:07 | -23.51055 | -46.63261 | 2375 ft | 14 kts | 99° |
| 2026-04-28 21:07 | -23.51076 | -46.63146 | 2375 ft | 17 kts | 100° |
| 2026-04-28 21:07 | -23.51093 | -46.63055 | 2376 ft | 0 kts | 92° |
| 2026-04-28 21:08 | -23.51093 | -46.63047 | 2376 ft | 4 kts | 91° |
| 2026-04-28 21:08 | -23.51089 | -46.63021 | 2376 ft | 10 kts | 49° |
| 2026-04-28 21:08 | -23.51035 | -46.63038 | 2376 ft | 9 kts | 284° |
| 2026-04-28 21:09 | -23.51032 | -46.63056 | 2376 ft | 0 kts | 277° |
| 2026-04-28 21:11 | -23.51031 | -46.63063 | 2376 ft | 6 kts | 277° |
| 2026-04-28 21:11 | -23.50989 | -46.63334 | 2374 ft | 69 kts | 280° |
| 2026-04-28 21:11 | -23.50864 | -46.64012 | 2388 ft | 108 kts | 281° |
| 2026-04-28 21:12 | -23.50730 | -46.64813 | 2583 ft | 107 kts | 280° |
| 2026-04-28 21:12 | -23.50481 | -46.65593 | 2723 ft | 119 kts | 298° |
| 2026-04-28 21:12 | -23.50005 | -46.66315 | 2963 ft | 116 kts | 322° |
| 2026-04-28 21:12 | -23.49296 | -46.66660 | 3161 ft | 113 kts | 336° |
| 2026-04-28 21:13 | -23.48561 | -46.66997 | 3315 ft | 117 kts | 338° |
| 2026-04-28 21:13 | -23.47791 | -46.67348 | 3478 ft | 123 kts | 338° |
| 2026-04-28 21:13 | -23.46992 | -46.67716 | 3655 ft | 126 kts | 338° |
| 2026-04-28 21:13 | -23.46190 | -46.68087 | 3826 ft | 127 kts | 338° |
| 2026-04-28 21:14 | -23.45371 | -46.68460 | 4017 ft | 128 kts | 338° |
| 2026-04-28 21:14 | -23.44540 | -46.68829 | 4197 ft | 130 kts | 338° |
| 2026-04-28 21:14 | -23.43707 | -46.69201 | 4370 ft | 129 kts | 338° |
| 2026-04-28 21:14 | -23.42882 | -46.69576 | 4523 ft | 130 kts | 338° |
| 2026-04-28 21:15 | -23.42009 | -46.69966 | 4538 ft | 141 kts | 338° |
| 2026-04-28 21:15 | -23.41034 | -46.70222 | 4533 ft | 148 kts | 356° |
| 2026-04-28 21:15 | -23.39985 | -46.70296 | 4538 ft | 154 kts | 357° |
| 2026-04-28 21:15 | -23.38912 | -46.70370 | 4586 ft | 154 kts | 357° |
| 2026-04-28 21:16 | -23.37828 | -46.70445 | 4597 ft | 157 kts | 357° |
| 2026-04-28 21:16 | -23.36727 | -46.70521 | 4595 ft | 160 kts | 357° |
| 2026-04-28 21:16 | -23.35609 | -46.70598 | 4594 ft | 162 kts | 357° |
| 2026-04-28 21:16 | -23.34485 | -46.70678 | 4599 ft | 162 kts | 357° |
| 2026-04-28 21:17 | -23.33368 | -46.70758 | 4589 ft | 163 kts | 357° |
| 2026-04-28 21:17 | -23.32234 | -46.70839 | 4590 ft | 163 kts | 357° |
| 2026-04-28 21:17 | -23.31100 | -46.70923 | 4586 ft | 163 kts | 357° |
| 2026-04-28 21:17 | -23.29968 | -46.71006 | 4586 ft | 163 kts | 357° |
| 2026-04-28 21:18 | -23.28837 | -46.71087 | 4584 ft | 163 kts | 357° |
| 2026-04-28 21:18 | -23.27708 | -46.71213 | 4583 ft | 163 kts | 352° |
| 2026-04-28 21:18 | -23.26601 | -46.71413 | 4578 ft | 161 kts | 351° |
| 2026-04-28 21:18 | -23.25498 | -46.71614 | 4568 ft | 160 kts | 351° |
| 2026-04-28 21:19 | -23.24399 | -46.71814 | 4567 ft | 159 kts | 351° |
| 2026-04-28 21:19 | -23.23307 | -46.72012 | 4562 ft | 159 kts | 351° |
| 2026-04-28 21:19 | -23.22218 | -46.72207 | 4559 ft | 158 kts | 351° |
| 2026-04-28 21:19 | -23.21498 | -46.72335 | 4556 ft | 158 kts | 351° |
| 2026-04-28 21:20 | -23.20040 | -46.72593 | 4558 ft | 159 kts | 351° |
| 2026-04-28 21:20 | -23.19319 | -46.72721 | 4548 ft | 158 kts | 351° |
| 2026-04-28 21:20 | -23.18227 | -46.72915 | 4547 ft | 159 kts | 351° |
| 2026-04-28 21:20 | -23.17137 | -46.73111 | 4549 ft | 159 kts | 351° |
| 2026-04-28 21:21 | -23.15683 | -46.73367 | 4555 ft | 160 kts | 351° |
| 2026-04-28 21:21 | -23.14943 | -46.73497 | 4541 ft | 159 kts | 351° |
| 2026-04-28 21:21 | -23.13849 | -46.73689 | 4544 ft | 159 kts | 351° |
| 2026-04-28 21:21 | -23.12754 | -46.73882 | 4546 ft | 160 kts | 351° |
| 2026-04-28 21:22 | -23.11659 | -46.74073 | 4542 ft | 159 kts | 351° |
| 2026-04-28 21:22 | -23.10583 | -46.74263 | 4540 ft | 159 kts | 351° |
| 2026-04-28 21:22 | -23.09484 | -46.74458 | 4543 ft | 158 kts | 351° |
| 2026-04-28 21:22 | -23.08398 | -46.74651 | 4536 ft | 158 kts | 351° |
| 2026-04-28 21:23 | -23.07323 | -46.74842 | 4544 ft | 158 kts | 351° |
| 2026-04-28 21:23 | -23.06234 | -46.75035 | 4545 ft | 159 kts | 351° |